createdAt,value
2023-03-29T00:07:30.015Z,1.38
2023-03-29T00:17:31.312Z,1.10
2023-03-29T00:27:32.619Z,1.40
2023-03-29T00:37:33.949Z,1.40
2023-03-29T00:47:35.389Z,1.25
2023-03-29T00:57:36.854Z,1.30
2023-03-29T01:07:38.175Z,1.50
2023-03-29T01:17:39.431Z,1.40
2023-03-29T01:27:40.913Z,1.40
2023-03-29T01:37:42.237Z,1.27
2023-03-29T01:47:43.520Z,1.30
2023-03-29T01:57:44.808Z,1.23
2023-03-29T02:07:46.094Z,1.20
2023-03-29T02:17:47.421Z,1.25
2023-03-29T02:27:48.680Z,1.08
2023-03-29T02:37:49.942Z,1.20
2023-03-29T02:47:51.338Z,1.20
2023-03-29T02:57:52.728Z,1.20
2023-03-29T03:07:54.000Z,1.05
2023-03-29T03:17:55.411Z,1.20
2023-03-29T03:27:56.712Z,1.27
2023-03-29T03:37:57.960Z,1.40
2023-03-29T03:47:59.251Z,1.30
2023-03-29T03:58:00.508Z,1.35
2023-03-29T04:08:01.742Z,1.25
2023-03-29T04:18:03.030Z,1.38
2023-03-29T04:28:04.363Z,1.20
2023-03-29T04:38:05.718Z,1.25
2023-03-29T04:48:07.058Z,1.20
2023-03-29T04:58:08.368Z,1.30
2023-03-29T05:08:09.691Z,1.42
2023-03-29T05:18:11.111Z,1.30
2023-03-29T05:28:12.466Z,1.35
2023-03-29T05:38:13.704Z,1.40
2023-03-29T05:48:15.015Z,1.30
2023-03-29T05:58:16.266Z,1.20
2023-03-29T06:08:20.975Z,1.25
2023-03-29T06:18:22.426Z,1.60
2023-03-29T06:28:23.687Z,1.67
2023-03-29T06:38:24.943Z,1.58
2023-03-29T06:48:26.199Z,1.52
2023-03-29T06:58:27.473Z,1.38
2023-03-29T07:08:28.834Z,1.50
2023-03-29T07:18:30.098Z,1.30
2023-03-29T07:28:31.436Z,1.40
2023-03-29T07:38:32.685Z,1.50
2023-03-29T07:48:34.026Z,1.80
2023-03-29T07:58:35.288Z,1.60
2023-03-29T08:08:36.536Z,1.65
2023-03-29T08:18:37.782Z,1.77
2023-03-29T08:28:39.029Z,1.55
2023-03-29T08:38:40.328Z,1.50
2023-03-29T08:48:41.652Z,1.50
2023-03-29T08:58:42.956Z,1.83
2023-03-29T09:08:44.273Z,1.90
2023-03-29T09:18:45.569Z,2.20
2023-03-29T09:39:15.957Z,1.80
2023-03-29T09:49:17.623Z,2.00
2023-03-29T09:59:18.956Z,1.98
2023-03-29T10:09:22.913Z,1.60
2023-03-29T10:19:24.252Z,2.10
2023-03-29T10:29:28.253Z,2.00
2023-03-29T10:39:38.254Z,1.67
2023-03-29T10:49:43.592Z,1.80
2023-03-29T10:59:52.550Z,1.75
2023-03-29T11:10:02.675Z,1.83
2023-03-29T11:20:07.475Z,1.67
2023-03-29T11:30:12.539Z,1.60
2023-03-29T11:40:23.842Z,1.80
2023-03-29T11:50:36.587Z,1.55
2023-03-29T12:00:39.588Z,1.90
2023-03-29T12:10:47.611Z,1.75
2023-03-29T12:20:58.713Z,2.08
2023-03-29T12:31:05.673Z,1.77
2023-03-29T12:41:14.555Z,1.90
2023-03-29T12:51:21.512Z,1.70
2023-03-29T13:01:31.763Z,1.75
2023-03-29T13:11:39.357Z,1.60
2023-03-29T13:21:45.032Z,1.60
2023-03-29T13:31:55.665Z,1.50
2023-03-29T13:41:59.593Z,1.30
2023-03-29T14:02:30.926Z,1.40
2023-03-29T14:12:32.589Z,1.55
2023-03-29T14:22:38.664Z,1.52
2023-03-29T14:32:52.060Z,1.27
2023-03-29T14:42:53.392Z,1.30
2023-03-29T14:53:02.426Z,1.55
2023-03-29T15:03:11.765Z,1.63
2023-03-29T15:13:15.664Z,1.02
2023-03-29T15:33:46.064Z,1.10
2023-03-29T16:15:17.460Z,1.17
2023-03-29T16:25:25.615Z,1.27
2023-03-29T16:35:33.675Z,1.40
2023-03-29T16:45:38.130Z,1.23
2023-03-29T16:55:44.082Z,1.10
2023-03-29T17:05:57.605Z,1.10
2023-03-29T17:16:04.135Z,1.25
2023-03-29T17:26:11.790Z,1.20
2023-03-29T17:36:19.691Z,1.08
2023-03-29T17:46:20.997Z,1.45
2023-03-29T17:56:22.294Z,1.80
2023-03-29T18:06:23.541Z,1.75
2023-03-29T18:16:24.853Z,1.77
2023-03-29T18:26:26.123Z,1.50
2023-03-29T18:36:27.394Z,1.70
2023-03-29T18:46:28.695Z,1.60
2023-03-29T18:56:29.960Z,1.70
2023-03-29T19:06:31.211Z,1.58
2023-03-29T19:16:32.483Z,2.00
2023-03-29T19:36:53.709Z,1.60
2023-03-29T19:46:55.075Z,2.08
2023-03-29T19:56:56.338Z,1.55
2023-03-29T20:06:57.658Z,1.67
2023-03-29T20:16:58.971Z,1.85
2023-03-29T20:27:00.241Z,1.70
2023-03-29T20:37:01.539Z,1.80
2023-03-29T20:47:02.932Z,1.90
2023-03-29T20:57:04.352Z,1.95
2023-03-29T21:07:05.718Z,1.90
2023-03-29T21:17:07.017Z,1.95
2023-03-29T21:27:08.472Z,2.00
2023-03-29T21:37:09.786Z,1.90
2023-03-29T21:47:11.077Z,2.13
2023-03-29T21:57:12.391Z,2.10
2023-03-29T22:07:13.732Z,2.10
2023-03-29T22:17:15.069Z,1.73
2023-03-29T22:27:16.340Z,1.88
2023-03-29T22:37:17.630Z,1.70
2023-03-29T22:47:18.915Z,1.83
2023-03-29T22:57:20.337Z,1.90
2023-03-29T23:07:21.685Z,2.13
2023-03-29T23:17:22.938Z,1.70
2023-03-29T23:27:24.317Z,2.05
2023-03-29T23:37:25.785Z,1.60
2023-03-29T23:47:27.156Z,1.80
2023-03-29T23:57:28.493Z,1.70
